Time;durP1;ratioP1;P1;durP2;ratioP2;P2;SDS_P1;SDS_P2;PMS_P1;PMS_P2;Temp;Humidity;BMP_temperature;BMP_pressure;BME280_temperature;BME280_humidity;BME280_pressure;Samples;Min_cycle;Max_cycle;Signal;HPM_P1;HPM_P2
2021/04/15 00:02:16;;;;;;;;;;;;;;;4.92;67.21;100015.13;5114172;28;20349;-66
2021/04/15 00:04:45;;;;;;;;;;;;;;;4.95;67.13;100011.84;5114322;28;20315;-66
2021/04/15 00:07:13;;;;;;;;;;;;;;;4.93;66.93;100006.75;5114301;28;20315;-66
2021/04/15 00:09:40;;;;;;;;;;;;;;;4.93;66.75;100005.88;5114321;28;19931;-66
2021/04/15 00:12:08;;;;;;;;;;;;;;;4.93;66.73;100009.28;5114160;28;19924;-66
2021/04/15 00:14:36;;;;;;;;;;;;;;;4.95;66.69;100010.16;5114156;28;19924;-66
2021/04/15 00:17:04;;;;;;;;;;;;;;;4.96;66.84;100001.78;5114184;28;20381;-66
2021/04/15 00:19:31;;;;;;;;;;;;;;;4.97;66.49;100000.94;5114215;28;19977;-66
2021/04/15 00:22:00;;;;;;;;;;;;;;;4.97;67.09;100003.47;5114177;28;19955;-66
2021/04/15 00:24:28;;;;;;;;;;;;;;;4.98;67.03;100004.34;5114096;28;19924;-66
2021/04/15 00:26:55;;;;;;;;;;;;;;;4.97;66.49;100007.66;5114091;28;19928;-66
2021/04/15 00:29:23;;;;;;;;;;;;;;;4.95;66.25;100010.16;5114112;28;20288;-66
2021/04/15 00:31:51;;;;;;;;;;;;;;;4.97;66.49;100015.25;5114422;28;19923;-66
2021/04/15 00:34:18;;;;;;;;;;;;;;;4.94;66.93;100013.53;5114004;28;19971;-66
2021/04/15 00:36:46;;;;;;;;;;;;;;;4.92;66.67;100010.09;5114036;28;20015;-67
2021/04/15 00:39:16;;;;;;;;;;;;;;;4.90;66.49;100016.78;5115753;28;19923;-66
2021/04/15 00:41:43;;;;;;;;;;;;;;;4.87;66.69;100011.63;5117873;28;19924;-66
2021/04/15 00:44:11;;;;;;;;;;;;;;;4.88;66.84;100015.88;5117823;28;20059;-66
2021/04/15 00:46:44;;;;;;;;;;;;;;;4.89;66.53;100022.66;5117771;28;20297;-66
2021/04/15 00:49:13;;;;;;;;;;;;;;;4.89;66.42;100017.59;5099856;28;20369;-66
2021/04/15 00:51:43;;;;;;;;;;;;;;;4.86;66.53;100017.53;5117463;28;19977;-67
2021/04/15 00:54:13;;;;;;;;;;;;;;;4.86;66.66;100009.94;5099462;28;19976;-66
2021/04/15 00:56:42;;;;;;;;;;;;;;;4.87;66.39;100011.63;5117625;28;19931;-66
2021/04/15 00:59:11;;;;;;;;;;;;;;;4.87;66.43;100014.16;5117594;28;19931;-67
2021/04/15 01:01:39;;;;;;;;;;;;;;;4.85;66.42;100010.72;5117495;28;20327;-67
2021/04/15 01:04:06;;;;;;;;;;;;;;;4.84;66.46;100005.66;5117435;28;19924;-67
2021/04/15 01:06:36;;;;;;;;;;;;;;;4.81;66.95;100011.47;5117296;28;19923;-66
2021/04/15 01:09:04;;;;;;;;;;;;;;;4.81;66.96;100006.41;5117348;28;20388;-67
2021/04/15 01:11:47;;;;;;;;;;;;;;;4.81;66.55;100001.38;5117405;28;19931;-66
2021/04/15 01:14:17;;;;;;;;;;;;;;;4.81;66.77;100006.41;5117563;28;20292;-67
2021/04/15 01:16:49;;;;;;;;;;;;;;;4.81;66.46;100001.38;5099031;28;19958;-66
2021/04/15 01:19:34;;;;;;;;;;;;;;;4.81;66.32;100001.38;5117492;28;19993;-66
2021/04/15 01:22:16;;;;;;;;;;;;;;;4.80;66.72;100004.69;5117238;28;19930;-67
2021/04/15 01:24:47;;;;;;;;;;;;;;;4.77;66.84;100004.63;5117185;28;19959;-67
2021/04/15 01:27:23;;;;;;;;;;;;;;;4.79;66.95;100003.00;5117351;28;19962;-66
2021/04/15 01:29:55;;;;;;;;;;;;;;;4.79;66.99;100005.53;5117330;28;19963;-66
2021/04/15 01:32:27;;;;;;;;;;;;;;;4.75;67.04;100002.03;5117216;28;20282;-67
2021/04/15 01:34:57;;;;;;;;;;;;;;;4.72;67.56;100001.13;5099123;28;20002;-67
2021/04/15 01:37:29;;;;;;;;;;;;;;;4.71;67.65;99997.72;5116818;28;20312;-66
2021/04/15 01:40:00;;;;;;;;;;;;;;;4.70;68.00;99992.63;5116846;28;20398;-66
2021/04/15 01:42:31;;;;;;;;;;;;;;;4.71;67.41;99999.41;5116795;28;19931;-66
2021/04/15 01:45:01;;;;;;;;;;;;;;;4.68;67.76;100000.16;5117050;28;20322;-67
2021/04/15 01:47:32;;;;;;;;;;;;;;;4.66;67.70;99998.41;5117217;28;19923;-66
2021/04/15 01:50:02;;;;;;;;;;;;;;;4.64;67.50;99992.44;5116571;28;19967;-66
2021/04/15 01:52:32;;;;;;;;;;;;;;;4.61;68.20;99992.38;5116190;28;19927;-66
2021/04/15 01:55:01;;;;;;;;;;;;;;;4.60;67.88;99985.63;5116506;28;19924;-67
2021/04/15 01:57:31;;;;;;;;;;;;;;;4.59;68.59;99994.00;5116425;28;19924;-66
2021/04/15 02:00:02;;;;;;;;;;;;;;;4.56;68.06;99988.84;5116397;28;19924;-66
2021/04/15 02:02:41;;;;;;;;;;;;;;;4.54;67.97;99998.06;5116295;28;20010;-68
2021/04/15 02:05:10;;;;;;;;;;;;;;;4.51;68.69;99995.47;5116470;28;19924;-66
2021/04/15 02:07:41;;;;;;;;;;;;;;;4.50;68.64;99991.22;5116247;28;19924;-66
2021/04/15 02:10:09;;;;;;;;;;;;;;;4.47;68.39;99989.47;5116511;28;20319;-66
2021/04/15 02:12:39;;;;;;;;;;;;;;;4.45;69.02;99988.56;5097849;28;20266;-66
2021/04/15 02:15:10;;;;;;;;;;;;;;;4.45;69.27;99991.09;5116179;28;19924;-66
2021/04/15 02:17:39;;;;;;;;;;;;;;;4.44;69.51;99986.00;5116071;28;19924;-67
2021/04/15 02:20:09;;;;;;;;;;;;;;;4.43;69.47;99980.09;5116015;28;19924;-67
2021/04/15 02:22:40;;;;;;;;;;;;;;;4.40;69.53;99986.72;5115846;28;20305;-67
2021/04/15 02:25:13;;;;;;;;;;;;;;;4.38;69.78;99980.75;5116121;28;19970;-67
2021/04/15 02:27:44;;;;;;;;;;;;;;;4.37;69.45;99979.03;5116465;28;19924;-66
2021/04/15 02:30:17;;;;;;;;;;;;;;;4.35;69.11;99980.66;5115890;28;19951;-66
2021/04/15 02:32:51;;;;;;;;;;;;;;;4.34;69.82;99976.44;5115968;28;19963;-67
2021/04/15 02:35:22;;;;;;;;;;;;;;;4.32;69.73;99978.06;5115722;28;19966;-67
2021/04/15 02:37:53;;;;;;;;;;;;;;;4.33;69.51;99979.78;5115980;28;20112;-66
2021/04/15 02:40:22;;;;;;;;;;;;;;;4.33;69.77;99974.72;5115650;28;19924;-66
2021/04/15 02:42:50;;;;;;;;;;;;;;;4.28;69.28;99976.25;5115805;28;19923;-66
2021/04/15 02:45:26;;;;;;;;;;;;;;;4.28;70.06;99971.19;5115448;28;19931;-66
2021/04/15 02:47:58;;;;;;;;;;;;;;;4.24;69.95;99969.41;5097361;28;19931;-67
2021/04/15 02:50:26;;;;;;;;;;;;;;;4.20;69.50;99978.56;5115455;28;19927;-67
2021/04/15 02:52:58;;;;;;;;;;;;;;;4.21;69.93;99972.69;5115064;28;20039;-66
2021/04/15 02:55:27;;;;;;;;;;;;;;;4.17;69.58;99967.53;5115417;28;19928;-67
2021/04/15 02:58:00;;;;;;;;;;;;;;;4.16;69.97;99975.91;5115252;28;19924;-67
2021/04/15 03:00:31;;;;;;;;;;;;;;;4.16;69.58;99975.91;5115260;28;20005;-67
2021/04/15 03:03:01;;;;;;;;;;;;;;;4.11;70.13;99974.91;5114749;28;19930;-66
2021/04/15 03:05:30;;;;;;;;;;;;;;;4.10;69.41;99978.25;5115196;28;19924;-67
2021/04/15 03:08:00;;;;;;;;;;;;;;;4.10;69.63;99970.69;5115084;28;20391;-67
2021/04/15 03:10:30;;;;;;;;;;;;;;;4.12;70.29;99974.09;5115044;28;20376;-66
2021/04/15 03:13:01;;;;;;;;;;;;;;;4.15;69.70;99979.25;5115000;28;20315;-66
2021/04/15 03:15:32;;;;;;;;;;;;;;;4.16;69.49;99978.41;5115031;28;19924;-66
2021/04/15 03:18:02;;;;;;;;;;;;;;;4.18;70.23;99976.78;5114965;28;19981;-66
2021/04/15 03:20:31;;;;;;;;;;;;;;;4.20;70.20;99970.16;5114783;28;19924;-66
2021/04/15 03:23:03;;;;;;;;;;;;;;;4.20;69.74;99970.16;5114844;28;20023;-66
2021/04/15 03:25:32;;;;;;;;;;;;;;;4.21;70.05;99970.19;5114845;28;19932;-66
2021/04/15 03:28:03;;;;;;;;;;;;;;;4.23;69.66;99972.72;5114757;28;19966;-67
2021/04/15 03:30:33;;;;;;;;;;;;;;;4.24;69.86;99970.28;5096677;28;19959;-66
2021/04/15 03:33:05;;;;;;;;;;;;;;;4.26;69.91;99970.31;5114678;28;19924;-67
2021/04/15 03:35:37;;;;;;;;;;;;;;;4.26;69.90;99976.22;5115042;28;19969;-66
2021/04/15 03:38:09;;;;;;;;;;;;;;;4.25;69.77;99968.59;5114677;28;20014;-66
2021/04/15 03:40:38;;;;;;;;;;;;;;;4.23;69.48;99965.16;5114660;28;19930;-66
2021/04/15 03:43:09;;;;;;;;;;;;;;;4.26;70.03;99967.78;5114567;28;19928;-66
2021/04/15 03:45:43;;;;;;;;;;;;;;;4.27;69.95;99974.56;5096460;28;20337;-66
2021/04/15 03:48:13;;;;;;;;;;;;;;;4.27;69.87;99969.50;5114539;28;19924;-66
2021/04/15 03:50:47;;;;;;;;;;;;;;;4.27;69.71;99969.50;5114564;28;19949;-66
2021/04/15 03:53:18;;;;;;;;;;;;;;;4.30;69.10;99974.63;5114424;28;19928;-66
2021/04/15 03:55:48;;;;;;;;;;;;;;;4.31;68.72;99972.16;5114454;28;19924;-66
2021/04/15 03:58:17;;;;;;;;;;;;;;;4.34;69.32;99971.41;5114089;28;20028;-66
2021/04/15 04:00:48;;;;;;;;;;;;;;;4.35;68.44;99973.09;5114201;28;20377;-66
2021/04/15 04:03:18;;;;;;;;;;;;;;;4.36;68.43;99970.63;5114494;28;20405;-66
2021/04/15 04:05:49;;;;;;;;;;;;;;;4.26;68.99;99952.63;5114077;28;20353;-66
2021/04/15 04:08:19;;;;;;;;;;;;;;;4.38;68.39;99978.22;5114362;28;19928;-66
2021/04/15 04:10:48;;;;;;;;;;;;;;;4.39;68.64;99974.91;5114277;28;19924;-66
2021/04/15 04:13:24;;;;;;;;;;;;;;;4.38;68.79;99979.09;5114255;28;19928;-66
2021/04/15 04:15:55;;;;;;;;;;;;;;;4.38;68.17;99968.13;5118388;28;19927;-66
2021/04/15 04:18:27;;;;;;;;;;;;;;;4.39;68.46;99973.22;5100093;28;20373;-66
2021/04/15 04:20:59;;;;;;;;;;;;;;;4.42;68.43;99975.84;5118668;28;19927;-66
2021/04/15 04:23:35;;;;;;;;;;;;;;;4.41;68.55;99973.28;5118199;28;19927;-66
2021/04/15 04:26:06;;;;;;;;;;;;;;;4.43;68.15;99971.66;5118570;28;20381;-66
2021/04/15 04:28:37;;;;;;;;;;;;;;;4.45;68.23;99975.06;5118180;28;19924;-67
2021/04/15 04:31:08;;;;;;;;;;;;;;;4.46;67.80;99971.75;5118167;28;19924;-65
2021/04/15 04:33:38;;;;;;;;;;;;;;;4.51;67.71;99981.13;5118314;28;19970;-67
2021/04/15 04:36:07;;;;;;;;;;;;;;;4.54;67.45;99983.75;5118030;28;19994;-66
2021/04/15 04:38:35;;;;;;;;;;;;;;;4.55;67.78;99977.91;5117910;28;19927;-66
2021/04/15 04:41:07;;;;;;;;;;;;;;;4.58;67.60;99982.19;5117945;28;19924;-65
2021/04/15 04:43:41;;;;;;;;;;;;;;;4.61;67.63;99982.25;5117977;28;19923;-66
2021/04/15 04:46:16;;;;;;;;;;;;;;;4.66;67.47;99990.81;5118159;28;20373;-65
2021/04/15 04:48:52;;;;;;;;;;;;;;;4.70;67.46;99983.34;5117684;28;19928;-67
2021/04/15 04:51:20;;;;;;;;;;;;;;;4.76;67.23;99985.22;5117454;28;19924;-68
2021/04/15 04:53:51;;;;;;;;;;;;;;;4.81;67.74;99993.78;5117902;28;20381;-66
2021/04/15 04:56:26;;;;;;;;;;;;;;;4.85;67.15;99992.19;5117852;28;19955;-66
2021/04/15 04:58:58;;;;;;;;;;;;;;;4.89;67.61;99999.91;5117820;28;20284;-66
2021/04/15 05:01:28;;;;;;;;;;;;;;;4.92;67.21;99994.91;5118111;28;20281;-67
2021/04/15 05:03:57;;;;;;;;;;;;;;;4.94;67.17;99988.25;5117683;28;19923;-67
2021/04/15 05:06:30;;;;;;;;;;;;;;;4.97;67.21;99993.38;5117601;28;19930;-67
2021/04/15 05:09:02;;;;;;;;;;;;;;;5.03;67.53;99993.53;5117966;28;19924;-67
2021/04/15 05:11:35;;;;;;;;;;;;;;;5.03;67.23;99993.53;5117648;28;19930;-67
2021/04/15 05:14:05;;;;;;;;;;;;;;;5.06;67.04;99998.66;5118165;28;20368;-67
2021/04/15 05:16:38;;;;;;;;;;;;;;;5.07;66.83;99990.25;5117836;28;19930;-67
2021/04/15 05:19:07;;;;;;;;;;;;;;;5.12;66.74;99993.78;5117484;28;20364;-66
2021/04/15 05:21:47;;;;;;;;;;;;;;;5.17;66.30;99992.22;5117073;28;19930;-67
2021/04/15 05:24:18;;;;;;;;;;;;;;;5.20;66.12;99997.38;5116632;28;19959;-67
2021/04/15 05:26:47;;;;;;;;;;;;;;;5.23;65.85;99994.88;5117104;28;20314;-67
2021/04/15 05:29:17;;;;;;;;;;;;;;;5.25;65.94;99994.94;5117030;28;19924;-67
2021/04/15 05:31:47;;;;;;;;;;;;;;;5.28;65.66;100000.06;5117255;28;19930;-67
2021/04/15 05:34:20;;;;;;;;;;;;;;;5.30;65.00;100001.81;5117143;28;19970;-67
2021/04/15 05:36:49;;;;;;;;;;;;;;;5.33;65.30;99999.38;5116933;28;20026;-68
2021/04/15 05:39:18;;;;;;;;;;;;;;;5.35;64.99;100002.78;5116823;28;19966;-67
2021/04/15 05:41:50;;;;;;;;;;;;;;;5.37;64.60;100006.22;5116824;28;19928;-67
2021/04/15 05:44:20;;;;;;;;;;;;;;;5.40;64.55;100001.22;5116727;28;20346;-67
2021/04/15 05:46:50;;;;;;;;;;;;;;;5.44;64.34;100007.25;5116677;28;20018;-67
2021/04/15 05:49:20;;;;;;;;;;;;;;;5.48;64.76;99992.97;5117152;28;19924;-67
2021/04/15 05:51:51;;;;;;;;;;;;;;;5.51;64.41;100003.19;5099539;28;19960;-67
2021/04/15 05:54:20;;;;;;;;;;;;;;;5.60;64.45;99998.34;5116764;28;19924;-67
2021/04/15 05:56:53;;;;;;;;;;;;;;;5.63;64.04;99999.28;5116504;28;19969;-67
2021/04/15 05:59:27;;;;;;;;;;;;;;;5.64;64.06;99995.06;5116506;28;19977;-67
2021/04/15 06:02:11;;;;;;;;;;;;;;;5.70;63.72;99997.75;5116490;28;20416;-68
2021/04/15 06:04:43;;;;;;;;;;;;;;;5.77;63.86;99997.06;5115471;28;19924;-67
2021/04/15 06:07:15;;;;;;;;;;;;;;;5.83;63.33;99992.16;5116129;28;19947;-67
2021/04/15 06:09:43;;;;;;;;;;;;;;;5.89;62.83;99992.31;5116243;28;19924;-67
2021/04/15 06:12:15;;;;;;;;;;;;;;;5.90;62.63;99999.09;5116182;28;20300;-67
2021/04/15 06:14:46;;;;;;;;;;;;;;;5.96;62.54;99994.16;5115894;28;19924;-67
2021/04/15 06:17:26;;;;;;;;;;;;;;;6.04;62.44;99992.66;5116156;28;20289;-67
2021/04/15 06:19:55;;;;;;;;;;;;;;;6.10;61.96;99987.72;5116108;28;19923;-66
2021/04/15 06:22:24;;;;;;;;;;;;;;;6.18;61.62;99985.34;5115926;28;19923;-67
2021/04/15 06:24:55;;;;;;;;;;;;;;;6.21;60.93;99988.81;5115321;28;19923;-66
2021/04/15 06:27:23;;;;;;;;;;;;;;;6.22;60.72;99990.53;5115738;28;19924;-67
2021/04/15 06:29:56;;;;;;;;;;;;;;;6.27;60.49;99981.34;5115844;28;19931;-67
2021/04/15 06:32:27;;;;;;;;;;;;;;;6.37;60.28;99983.25;5115768;28;19924;-66
2021/04/15 06:34:56;;;;;;;;;;;;;;;6.44;60.25;99990.16;5115603;28;19947;-67
2021/04/15 06:37:30;;;;;;;;;;;;;;;6.50;60.11;99990.25;5113515;28;19931;-67
2021/04/15 06:40:26;;;;;;;;;;;;;;;6.61;59.88;99993.88;5115639;28;19938;-67
2021/04/15 06:43:06;;;;;;;;;;;;;;;6.65;59.91;99994.78;5115395;28;20415;-67
2021/04/15 06:45:44;;;;;;;;;;;;;;;6.68;59.69;99992.31;5115444;28;20373;-67
2021/04/15 06:48:22;;;;;;;;;;;;;;;6.71;59.42;99994.94;5115417;28;19931;-67
2021/04/15 06:51:07;;;;;;;;;;;;;;;6.71;59.04;99995.78;5114497;28;20377;-67
2021/04/15 06:53:43;;;;;;;;;;;;;;;6.74;59.23;99989.91;5105644;28;19924;-67
2021/04/15 06:56:18;;;;;;;;;;;;;;;6.73;58.58;99996.66;5115264;28;19971;-67
2021/04/15 06:58:52;;;;;;;;;;;;;;;6.77;58.75;99991.66;5115342;28;19923;-67
2021/04/15 07:01:28;;;;;;;;;;;;;;;6.78;58.43;99990.81;5115180;28;19924;-67
2021/04/15 07:04:07;;;;;;;;;;;;;;;6.79;58.27;99992.53;5115008;28;19967;-67
2021/04/15 07:06:41;;;;;;;;;;;;;;;6.83;58.25;99992.63;5114952;28;19959;-67
2021/04/15 07:09:26;;;;;;;;;;;;;;;6.87;57.88;99996.06;5115360;28;19924;-68
2021/04/15 07:12:07;;;;;;;;;;;;;;;6.97;57.98;99998.81;5115038;28;19930;-67
2021/04/15 07:14:48;;;;;;;;;;;;;;;6.97;57.40;99995.41;5115000;28;19931;-68
2021/04/15 07:17:33;;;;;;;;;;;;;;;7.02;57.18;100003.97;5114907;28;20088;-68
2021/04/15 07:20:16;;;;;;;;;;;;;;;7.13;57.34;100005.00;5115783;28;19924;-68
2021/04/15 07:23:00;;;;;;;;;;;;;;;7.13;57.47;99999.94;5102335;28;19971;-68
2021/04/15 07:25:41;;;;;;;;;;;;;;;7.12;57.12;99999.09;5115141;28;19978;-68
2021/04/15 07:28:30;;;;;;;;;;;;;;;7.18;57.20;100004.28;5114796;28;19923;-68
2021/04/15 07:31:16;;;;;;;;;;;;;;;7.25;57.20;100002.69;5089237;28;19958;-69
2021/04/15 07:33:55;;;;;;;;;;;;;;;7.22;56.36;100000.13;5114710;28;19931;-68
2021/04/15 07:36:34;;;;;;;;;;;;;;;7.20;56.36;100002.59;5114616;28;19928;-68
2021/04/15 07:39:17;;;;;;;;;;;;;;;7.22;56.08;100007.72;5115043;28;19923;-68
2021/04/15 07:41:55;;;;;;;;;;;;;;;7.28;56.39;100015.44;5112586;28;20457;-67
2021/04/15 07:44:31;;;;;;;;;;;;;;;7.36;56.17;100018.97;5114550;28;19931;-67
2021/04/15 07:47:09;;;;;;;;;;;;;;;7.33;55.72;100018.91;5114551;28;19977;-68
2021/04/15 07:49:48;;;;;;;;;;;;;;;7.39;55.77;100014.78;5114531;28;19934;-68
2021/04/15 07:52:31;;;;;;;;;;;;;;;7.44;55.62;100023.34;5112001;28;20015;-68
2021/04/15 07:55:08;;;;;;;;;;;;;;;7.52;56.15;100030.25;5081221;28;19976;-67
2021/04/15 07:57:54;;;;;;;;;;;;;;;7.52;55.80;100025.16;5114292;28;20377;-68
2021/04/15 08:00:32;;;;;;;;;;;;;;;7.48;55.33;100024.28;5114424;28;20398;-67
2021/04/15 08:03:10;;;;;;;;;;;;;;;7.39;54.21;100021.56;5114598;28;20315;-67
2021/04/15 08:05:49;;;;;;;;;;;;;;;7.29;54.65;100023.06;5114565;28;19927;-67
2021/04/15 08:08:34;;;;;;;;;;;;;;;7.24;54.09;100034.00;5114201;28;19928;-67
2021/04/15 08:11:14;;;;;;;;;;;;;;;7.27;54.64;100031.53;5114314;28;19924;-67
2021/04/15 08:14:00;;;;;;;;;;;;;;;7.24;54.19;100034.84;5114100;28;19924;-67
2021/04/15 08:16:39;;;;;;;;;;;;;;;7.27;54.18;100026.44;5066468;28;20270;-67
2021/04/15 08:19:28;;;;;;;;;;;;;;;7.39;54.87;100029.16;5114154;28;19928;-67
2021/04/15 08:22:00;;;;;;;;;;;;;;;7.48;54.82;100034.44;5114116;28;20301;-67
2021/04/15 08:24:34;;;;;;;;;;;;;;;7.49;54.82;100031.03;5114188;28;19959;-67
2021/04/15 08:27:12;;;;;;;;;;;;;;;7.56;54.58;100037.94;5113986;28;19924;-67
2021/04/15 08:29:59;;;;;;;;;;;;;;;7.62;54.64;100032.97;5114095;28;19924;-67
2021/04/15 08:32:29;;;;;;;;;;;;;;;7.65;55.19;100033.03;5112234;28;20266;-67
2021/04/15 08:35:07;;;;;;;;;;;;;;;7.68;55.37;100035.59;5113948;28;19935;-67
2021/04/15 08:37:39;;;;;;;;;;;;;;;7.59;54.77;100027.84;5114128;28;19923;-67
2021/04/15 08:40:15;;;;;;;;;;;;;;;7.55;55.03;100038.78;5114074;28;19936;-67
2021/04/15 08:42:50;;;;;;;;;;;;;;;7.60;54.92;100034.63;5114050;28;19924;-67
2021/04/15 08:45:23;;;;;;;;;;;;;;;7.68;54.61;100038.13;5114337;28;20368;-67
2021/04/15 09:57:31;;;;;;;;;;;;;;;8.06;53.40;100044.69;4329208;24;20265;-65
2021/04/15 10:00:10;;;;;;;;;;;;;;;8.03;53.96;100042.13;4808724;29;19959;-67
2021/04/15 10:02:47;;;;;;;;;;;;;;;7.99;53.03;100042.88;4808913;29;19982;-67
2021/04/15 10:05:18;;;;;;;;;;;;;;;8.04;53.64;100035.31;4808610;29;20031;-67
2021/04/15 10:07:50;;;;;;;;;;;;;;;8.06;54.15;100037.06;4808863;29;20410;-67
2021/04/15 10:10:24;;;;;;;;;;;;;;;8.20;54.64;100036.41;4808429;29;20376;-66
2021/04/15 10:13:05;;;;;;;;;;;;;;;8.35;54.82;100034.13;4808499;29;19964;-67
2021/04/15 10:15:38;;;;;;;;;;;;;;;8.40;55.32;100029.94;4808607;29;19964;-66
2021/04/15 10:18:07;;;;;;;;;;;;;;;8.42;55.67;100025.75;4808406;29;19939;-66
2021/04/15 10:20:47;;;;;;;;;;;;;;;8.43;54.80;100032.53;4808340;29;19929;-66
2021/04/15 10:23:26;;;;;;;;;;;;;;;8.42;54.66;100025.75;4808315;29;20043;-66
2021/04/15 10:25:56;;;;;;;;;;;;;;;8.47;54.71;100029.22;4808242;29;20380;-66
2021/04/15 10:28:42;;;;;;;;;;;;;;;8.48;54.43;100031.75;4808186;29;19929;-66
2021/04/15 10:31:27;;;;;;;;;;;;;;;8.48;54.33;100023.28;4808326;29;19933;-66
2021/04/15 10:34:07;;;;;;;;;;;;;;;8.50;54.30;100026.69;4791789;29;19933;-67
2021/04/15 10:36:49;;;;;;;;;;;;;;;8.45;55.65;100026.63;4807993;29;19929;-66
2021/04/15 10:39:33;;;;;;;;;;;;;;;8.49;55.73;100023.31;4792698;29;19975;-66
2021/04/15 10:42:11;;;;;;;;;;;;;;;8.40;55.86;100024.84;4807973;29;20033;-66
2021/04/15 10:45:03;;;;;;;;;;;;;;;8.37;55.98;100022.28;4808256;29;19983;-67
2021/04/15 10:47:40;;;;;;;;;;;;;;;8.46;55.47;100022.41;4807850;29;19933;-66
2021/04/15 10:50:15;;;;;;;;;;;;;;;8.55;55.95;100012.34;4791663;29;19929;-66
2021/04/15 10:52:50;;;;;;;;;;;;;;;8.58;55.52;100020.00;4807748;29;19936;-66
2021/04/15 10:55:23;;;;;;;;;;;;;;;8.66;56.36;100014.16;4807582;29;20395;-66
2021/04/15 10:57:51;;;;;;;;;;;;;;;8.70;57.12;100012.53;4807500;29;19929;-66
2021/04/15 11:00:24;;;;;;;;;;;;;;;8.62;56.88;100016.66;4807493;29;19940;-66
2021/04/15 11:02:54;;;;;;;;;;;;;;;8.63;57.68;100010.75;4807482;29;19975;-66
2021/04/15 11:05:24;;;;;;;;;;;;;;;8.70;58.20;100012.53;4807544;29;19929;-66
2021/04/15 11:07:54;;;;;;;;;;;;;;;8.71;58.41;100002.38;4820986;29;19929;-66
2021/04/15 11:10:24;;;;;;;;;;;;;;;8.71;56.97;100002.38;4807127;29;19929;-66
2021/04/15 11:13:01;;;;;;;;;;;;;;;9.01;58.02;99998.47;4807402;29;19929;-66
2021/04/15 11:15:37;;;;;;;;;;;;;;;9.17;57.06;99998.63;4807226;29;19929;-66
2021/04/15 11:18:08;;;;;;;;;;;;;;;9.20;55.76;99996.13;4807387;29;19933;-66
2021/04/15 11:20:41;;;;;;;;;;;;;;;9.32;54.83;100003.00;4807306;29;19929;-66
2021/04/15 11:23:10;;;;;;;;;;;;;;;9.35;54.96;99997.97;4806917;29;20020;-66
2021/04/15 11:25:40;;;;;;;;;;;;;;;9.30;54.41;100000.47;4807116;29;19937;-66
2021/04/15 11:28:13;;;;;;;;;;;;;;;9.19;54.93;100004.59;4807185;29;19936;-66
2021/04/15 11:30:43;;;;;;;;;;;;;;;9.00;55.70;100005.22;4807201;29;19929;-66
2021/04/15 11:33:32;;;;;;;;;;;;;;;8.81;56.84;100007.56;4807142;29;20368;-66
2021/04/15 11:36:06;;;;;;;;;;;;;;;8.84;57.98;100005.91;4806932;29;19929;-66
2021/04/15 11:38:34;;;;;;;;;;;;;;;8.88;58.56;100002.56;4807131;29;20032;-66
2021/04/15 11:41:11;;;;;;;;;;;;;;;9.09;60.03;100005.34;4807014;29;19929;-66
2021/04/15 11:43:40;;;;;;;;;;;;;;;9.21;59.99;100002.91;4807020;29;19930;-65
2021/04/15 11:46:14;;;;;;;;;;;;;;;9.26;59.87;99996.16;4806922;29;19930;-65
2021/04/15 11:48:43;;;;;;;;;;;;;;;9.13;58.13;99999.44;4806999;29;20015;-65
2021/04/15 11:51:14;;;;;;;;;;;;;;;9.17;58.43;100001.19;4806840;29;19929;-66
2021/04/15 11:53:43;;;;;;;;;;;;;;;9.01;57.46;99996.78;4806857;29;19929;-66
2021/04/15 11:56:14;;;;;;;;;;;;;;;8.98;57.15;99999.28;4790576;29;20016;-66
2021/04/15 11:58:41;;;;;;;;;;;;;;;9.01;57.19;99996.78;4806616;29;19932;-67
2021/04/15 12:01:09;;;;;;;;;;;;;;;8.90;57.43;100000.03;4790596;29;19930;-67
2021/04/15 12:03:52;;;;;;;;;;;;;;;8.83;58.02;99999.09;4806642;29;19930;-67
2021/04/15 12:06:22;;;;;;;;;;;;;;;8.71;58.56;100004.03;4806761;29;19930;-66
2021/04/15 12:08:51;;;;;;;;;;;;;;;8.60;59.40;100001.41;4806695;29;19968;-66
2021/04/15 12:11:21;;;;;;;;;;;;;;;8.52;59.94;100002.13;4806758;29;19940;-66
2021/04/15 12:13:50;;;;;;;;;;;;;;;8.40;59.90;100007.03;4806956;29;19982;-65
2021/04/15 12:16:20;;;;;;;;;;;;;;;8.20;60.87;99998.28;4806985;29;19929;-65
2021/04/15 12:18:51;;;;;;;;;;;;;;;8.06;62.34;100006.56;4806652;29;20402;-66
2021/04/15 12:21:21;;;;;;;;;;;;;;;7.97;62.61;100010.66;4806688;29;20020;-65
2021/04/15 12:23:52;;;;;;;;;;;;;;;7.64;64.09;100005.91;4806641;29;19973;-65
2021/04/15 12:26:43;;;;;;;;;;;;;;;7.52;65.02;100008.25;4806657;29;19929;-65
2021/04/15 12:29:13;;;;;;;;;;;;;;;7.56;65.68;100001.56;4806612;29;19935;-65
2021/04/15 12:31:43;;;;;;;;;;;;;;;7.42;65.71;100014.00;4806586;29;20020;-66
2021/04/15 12:34:22;;;;;;;;;;;;;;;7.31;66.21;100007.88;4806443;29;19929;-66
2021/04/15 12:36:55;;;;;;;;;;;;;;;7.26;66.28;100002.72;4810007;29;19929;-66
2021/04/15 12:39:26;;;;;;;;;;;;;;;7.34;66.66;100005.41;4809949;29;20359;-66
2021/04/15 12:41:56;;;;;;;;;;;;;;;7.26;66.57;100006.94;4809934;29;20362;-65
2021/04/15 12:44:25;;;;;;;;;;;;;;;7.30;67.37;100003.63;4809907;29;19978;-66
2021/04/15 12:46:54;;;;;;;;;;;;;;;7.24;67.35;100006.06;4809869;29;19929;-66
2021/04/15 12:49:24;;;;;;;;;;;;;;;7.30;67.09;100007.03;4809896;29;19937;-66
2021/04/15 12:51:56;;;;;;;;;;;;;;;7.41;67.54;100008.06;4793364;29;19929;-66
2021/04/15 12:54:27;;;;;;;;;;;;;;;7.46;67.10;100002.22;4809717;29;19978;-66
2021/04/15 12:56:56;;;;;;;;;;;;;;;7.32;66.58;100004.50;4809442;29;19929;-67
2021/04/15 12:59:26;;;;;;;;;;;;;;;7.29;66.45;100005.31;4809611;29;20285;-67
2021/04/15 13:01:55;;;;;;;;;;;;;;;7.22;65.95;99997.59;4809878;29;20421;-66
2021/04/15 13:04:40;;;;;;;;;;;;;;;7.28;66.53;99996.00;4809554;29;19929;-66
2021/04/15 13:07:11;;;;;;;;;;;;;;;7.37;66.26;100000.38;4809582;29;19929;-66
2021/04/15 13:09:40;;;;;;;;;;;;;;;7.42;66.24;99989.47;4809406;29;19929;-66
2021/04/15 13:12:29;;;;;;;;;;;;;;;7.63;66.08;99983.88;4809665;29;20058;-66
2021/04/15 13:14:57;;;;;;;;;;;;;;;7.92;65.89;99977.53;4805050;29;19929;-66
2021/04/15 13:17:35;;;;;;;;;;;;;;;8.24;66.06;99982.22;4809288;29;19929;-66
2021/04/15 13:20:05;;;;;;;;;;;;;;;8.44;64.79;99983.38;4809347;29;20402;-66
2021/04/15 13:22:34;;;;;;;;;;;;;;;8.58;64.79;99969.13;4809231;29;19929;-66
2021/04/15 13:25:10;;;;;;;;;;;;;;;8.53;63.17;99974.16;4809287;29;19937;-66
2021/04/15 13:27:42;;;;;;;;;;;;;;;8.46;61.84;99972.41;4809139;29;19964;-66
2021/04/15 13:30:14;;;;;;;;;;;;;;;8.45;61.11;99965.59;4808986;29;19929;-66
2021/04/15 13:32:53;;;;;;;;;;;;;;;8.43;61.25;99968.94;4809073;29;20426;-66
2021/04/15 13:35:23;;;;;;;;;;;;;;;8.54;60.99;99965.69;4808918;29;20035;-66
2021/04/15 13:37:51;;;;;;;;;;;;;;;8.58;60.72;99969.13;4809027;29;19964;-66
2021/04/15 13:40:28;;;;;;;;;;;;;;;8.69;60.52;99965.00;4809280;29;19929;-66
2021/04/15 13:42:57;;;;;;;;;;;;;;;8.86;60.99;99962.66;4808997;29;19939;-66
2021/04/15 13:45:35;;;;;;;;;;;;;;;9.06;60.46;99954.41;4808433;29;20295;-66
2021/04/15 13:48:03;;;;;;;;;;;;;;;9.05;59.79;99959.44;4808753;29;19929;-66
2021/04/15 13:50:42;;;;;;;;;;;;;;;9.04;59.52;99958.63;4808639;29;19929;-66
2021/04/15 13:53:20;;;;;;;;;;;;;;;9.10;58.27;99958.66;4808805;29;20021;-66
2021/04/15 13:55:55;;;;;;;;;;;;;;;8.92;58.21;99958.50;4808615;29;20291;-66
2021/04/15 13:58:33;;;;;;;;;;;;;;;8.81;58.01;99954.97;4808480;29;19929;-66
2021/04/15 14:01:00;;;;;;;;;;;;;;;8.78;58.50;99955.78;4808556;29;19935;-66
2021/04/15 14:03:39;;;;;;;;;;;;;;;8.78;58.29;99950.69;4808514;29;19929;-66
2021/04/15 14:06:08;;;;;;;;;;;;;;;8.82;58.71;99951.59;4808375;29;19936;-66
2021/04/15 14:08:38;;;;;;;;;;;;;;;8.83;58.15;99963.47;4808514;29;19952;-66
2021/04/15 14:11:16;;;;;;;;;;;;;;;8.82;58.42;99951.59;4808441;29;19986;-66
2021/04/15 14:13:45;;;;;;;;;;;;;;;8.92;57.99;99958.50;4808359;29;19957;-66
2021/04/15 14:16:14;;;;;;;;;;;;;;;8.94;57.40;99946.63;4808351;29;19937;-66
2021/04/15 14:18:43;;;;;;;;;;;;;;;8.92;56.69;99950.88;4808315;29;20276;-66
2021/04/15 14:21:16;;;;;;;;;;;;;;;9.01;57.56;99948.41;4808368;29;20354;-66
2021/04/15 14:23:45;;;;;;;;;;;;;;;9.06;57.45;99951.00;4808120;29;19936;-66
2021/04/15 14:26:15;;;;;;;;;;;;;;;8.99;57.18;99954.31;4808112;29;19929;-66
2021/04/15 14:28:43;;;;;;;;;;;;;;;8.95;56.80;99953.41;4808110;29;20013;-66
2021/04/15 14:31:16;;;;;;;;;;;;;;;9.00;57.41;99951.78;4808397;29;19929;-66
2021/04/15 14:33:44;;;;;;;;;;;;;;;8.91;57.70;99951.69;4808379;29;19967;-66